Time;durP1;ratioP1;P1;durP2;ratioP2;P2;SDS_P1;SDS_P2;PMS_P1;PMS_P2;Temp;Humidity;BMP_temperature;BMP_pressure;BME280_temperature;BME280_humidity;BME280_pressure;Samples;Min_cycle;Max_cycle;Signal;HPM_P1;HPM_P2
2021/04/09 00:00:24;;;;;;;6.90;5.47;;;3.90;1.00;;;;;;5125507;27;20212;-79
2021/04/09 00:02:51;;;;;;;7.80;6.97;;;3.80;1.00;;;;;;5124393;27;20231;-79
2021/04/09 00:05:27;;;;;;;5.60;5.05;;;3.80;1.00;;;;;;5137549;27;20207;-79
2021/04/09 00:07:53;;;;;;;5.85;5.20;;;3.70;1.00;;;;;;5150563;27;20240;-79
2021/04/09 00:10:29;;;;;;;6.60;5.70;;;3.70;1.00;;;;;;5135812;27;20208;-80
2021/04/09 00:12:56;;;;;;;5.28;4.72;;;3.70;1.00;;;;;;5152193;27;21184;-78
2021/04/09 00:15:23;;;;;;;10.75;6.63;;;3.70;1.00;;;;;;5137361;27;20234;-79
2021/04/09 00:17:50;;;;;;;7.50;5.95;;;3.70;1.00;;;;;;5132675;27;20359;-79
2021/04/09 00:20:22;;;;;;;8.75;5.82;;;3.60;1.00;;;;;;5120937;27;20281;-79
2021/04/09 00:22:56;;;;;;;9.38;6.10;;;3.60;1.00;;;;;;5130890;27;20308;-80
2021/04/09 00:25:23;;;;;;;7.25;5.50;;;3.60;1.00;;;;;;5117530;27;20210;-80
2021/04/09 00:27:50;;;;;;;7.65;6.93;;;3.50;1.00;;;;;;5129864;27;20227;-80
2021/04/09 00:30:26;;;;;;;7.95;7.15;;;3.50;1.00;;;;;;5117709;27;20253;-79
2021/04/09 00:32:53;;;;;;;6.93;6.28;;;3.50;1.00;;;;;;5129748;27;20230;-80
2021/04/09 00:35:21;;;;;;;8.52;6.88;;;3.40;1.00;;;;;;5121949;27;20226;-79
2021/04/09 00:37:47;;;;;;;6.07;5.45;;;3.40;1.00;;;;;;5126108;27;20218;-79
2021/04/09 00:40:15;;;;;;;9.38;6.20;;;3.40;1.00;;;;;;5128154;27;20318;-79
2021/04/09 00:42:49;;;;;;;7.72;5.38;;;3.30;1.00;;;;;;5137103;27;20219;-80
2021/04/09 00:45:16;;;;;;;7.82;6.25;;;3.20;1.00;;;;;;5124865;27;20222;-80
2021/04/09 00:47:42;;;;;;;7.40;5.75;;;3.20;1.00;;;;;;5134038;27;20237;-78
2021/04/09 00:50:11;;;;;;;8.00;6.60;;;3.30;1.00;;;;;;5115125;27;20214;-80
2021/04/09 00:52:43;;;;;;;6.00;5.30;;;3.20;1.00;;;;;;5125617;27;20219;-82
2021/04/09 00:55:11;;;;;;;6.07;5.47;;;3.20;1.00;;;;;;5113646;27;20223;-78
2021/04/09 00:57:38;;;;;;;8.00;5.78;;;3.10;1.00;;;;;;5126555;27;20305;-81
2021/04/09 01:00:08;;;;;;;9.23;6.72;;;3.10;1.00;;;;;;5129216;27;20956;-80
2021/04/09 01:02:38;;;;;;;8.15;5.45;;;3.10;1.00;;;;;;5129760;27;20233;-81
2021/04/09 01:05:06;;;;;;;6.95;5.43;;;3.10;1.00;;;;;;5128985;27;20245;-81
2021/04/09 01:07:33;;;;;;;8.15;5.82;;;2.90;1.00;;;;;;5114891;27;20324;-82
2021/04/09 01:10:02;;;;;;;7.45;6.35;;;2.90;1.00;;;;;;5106196;27;20215;-81
2021/04/09 01:12:28;;;;;;;7.10;5.60;;;2.90;1.00;;;;;;5092016;27;20770;-81
2021/04/09 01:14:55;;;;;;;7.00;6.30;;;2.80;1.00;;;;;;5127004;27;21138;-81
2021/04/09 01:17:27;;;;;;;6.88;5.93;;;2.80;1.00;;;;;;5092103;27;22278;-80
2021/04/09 01:20:37;;;;;;;6.75;6.03;;;2.80;1.00;;;;;;5107139;27;20230;-80
2021/04/09 01:23:42;;;;;;;7.88;7.07;;;2.80;1.00;;;;;;5114035;27;20227;-80
2021/04/09 01:26:48;;;;;;;8.43;5.95;;;2.70;1.00;;;;;;5120879;27;20218;-80
2021/04/09 01:29:53;;;;;;;7.38;5.65;;;2.60;1.00;;;;;;5126720;27;21043;-81
2021/04/09 01:32:23;;;;;;;8.30;6.68;;;2.70;1.00;;;;;;5054116;27;20343;-79
2021/04/09 01:34:54;;;;;;;6.85;5.90;;;2.70;1.00;;;;;;5130699;27;20222;-81
2021/04/09 01:37:25;;;;;;;8.55;6.35;;;2.60;1.00;;;;;;5090988;27;20234;-80
2021/04/09 01:39:58;;;;;;;7.95;5.90;;;2.60;1.00;;;;;;5120922;27;20603;-81
2021/04/09 01:45:12;;;;;;;7.90;6.22;;;2.60;1.00;;;;;;5125521;27;20231;-82
2021/04/09 01:47:42;;;;;;;10.00;6.55;;;2.50;1.00;;;;;;5115581;27;20672;-81
2021/04/09 01:50:15;;;;;;;7.55;6.50;;;2.50;1.00;;;;;;5123746;27;20230;-78
2021/04/09 01:52:44;;;;;;;8.07;6.20;;;2.50;1.00;;;;;;5112920;27;20215;-81
2021/04/09 01:55:12;;;;;;;8.57;7.78;;;2.50;1.00;;;;;;5127174;27;20223;-80
2021/04/09 01:57:42;;;;;;;10.60;5.97;;;2.50;1.00;;;;;;5117203;27;24732;-79
2021/04/09 02:00:16;;;;;;;9.25;7.30;;;2.40;1.00;;;;;;5109799;27;20314;-79
2021/04/09 02:02:47;;;;;;;9.27;5.18;;;2.40;1.00;;;;;;5113590;27;20960;-80
2021/04/09 02:05:17;;;;;;;7.57;6.05;;;2.40;1.00;;;;;;5128264;27;20218;-80
2021/04/09 02:07:46;;;;;;;8.02;6.07;;;2.40;1.00;;;;;;5127133;27;20234;-77
2021/04/09 02:10:14;;;;;;;8.65;4.97;;;2.40;1.00;;;;;;5128139;27;20283;-79
2021/04/09 02:12:46;;;;;;;7.28;5.80;;;2.40;1.00;;;;;;5133233;27;20279;-79
2021/04/09 02:15:15;;;;;;;6.88;6.13;;;2.40;1.00;;;;;;5121879;27;20202;-78
2021/04/09 02:17:42;;;;;;;8.43;5.63;;;2.30;1.00;;;;;;5133605;27;20658;-83
2021/04/09 02:20:15;;;;;;;6.40;4.82;;;2.30;1.00;;;;;;5098043;27;20223;-80
2021/04/09 02:22:45;;;;;;;8.15;5.80;;;2.30;1.00;;;;;;5130275;27;20211;-81
2021/04/09 02:25:14;;;;;;;6.78;4.90;;;2.30;1.00;;;;;;5101386;27;20244;-81
2021/04/09 02:27:44;;;;;;;6.40;5.40;;;2.30;1.00;;;;;;5110995;27;20238;-82
2021/04/09 02:30:13;;;;;;;7.18;5.85;;;2.30;1.00;;;;;;5122034;27;20253;-83
2021/04/09 02:32:45;;;;;;;7.03;5.45;;;2.30;1.00;;;;;;5136732;22;20284;-83
2021/04/09 02:35:14;;;;;;;7.78;5.53;;;2.30;1.00;;;;;;5065450;28;20229;-83
2021/04/09 02:37:42;;;;;;;8.18;5.65;;;2.20;1.00;;;;;;5090984;28;21127;-82
2021/04/09 02:40:14;;;;;;;6.35;5.75;;;2.20;1.00;;;;;;5066949;28;20279;-83
2021/04/09 02:42:44;;;;;;;6.28;5.65;;;2.20;1.00;;;;;;5088648;28;20220;-83
2021/04/09 02:45:12;;;;;;;10.00;8.15;;;2.20;1.00;;;;;;5063004;28;20321;-82
2021/04/09 02:47:39;;;;;;;7.20;5.45;;;2.20;1.00;;;;;;5054906;28;20237;-84
2021/04/09 02:50:11;;;;;;;8.25;5.22;;;2.10;1.00;;;;;;5071117;28;20288;-82
2021/04/09 02:52:46;;;;;;;7.65;5.22;;;2.10;1.00;;;;;;5065879;28;20225;-83
2021/04/09 02:55:15;;;;;;;10.13;5.15;;;2.10;1.00;;;;;;5046694;28;20299;-82
2021/04/09 02:57:44;;;;;;;8.07;5.40;;;2.20;1.00;;;;;;5057123;28;20225;-82
2021/04/09 03:00:15;;;;;;;6.60;5.90;;;2.10;1.00;;;;;;5061599;28;20227;-82
2021/04/09 03:02:44;;;;;;;6.85;6.03;;;2.10;1.00;;;;;;5056577;28;20250;-82
2021/04/09 03:05:12;;;;;;;8.07;5.57;;;2.10;1.00;;;;;;5068935;28;20221;-82
2021/04/09 03:07:41;;;;;;;6.40;5.22;;;2.10;1.00;;;;;;5062977;28;20327;-83
2021/04/09 03:10:15;;;;;;;6.95;5.22;;;2.10;1.00;;;;;;5040608;28;20229;-84
2021/04/09 03:12:43;;;;;;;7.90;5.82;;;2.10;1.00;;;;;;5059446;28;20225;-83
2021/04/09 03:15:24;;;;;;;8.57;5.50;;;2.10;1.00;;;;;;5078916;28;20275;-83
2021/04/09 03:17:56;;;;;;;8.77;6.30;;;2.20;1.00;;;;;;5059442;28;20656;-85
2021/04/09 03:20:33;;;;;;;9.07;5.75;;;2.20;1.00;;;;;;5060396;28;20224;-83
2021/04/09 03:23:05;;;;;;;7.15;6.30;;;2.10;1.00;;;;;;5081244;28;20259;-84
2021/04/09 03:25:32;;;;;;;6.10;5.50;;;2.10;1.00;;;;;;5062506;28;21046;-84
2021/04/09 03:27:58;;;;;;;7.78;5.60;;;2.10;1.00;;;;;;5044648;28;20248;-82
2021/04/09 03:30:26;;;;;;;8.35;6.53;;;2.20;1.00;;;;;;5058870;28;20297;-83
2021/04/09 03:32:53;;;;;;;9.82;6.63;;;2.10;1.00;;;;;;5069804;28;20235;-84
2021/04/09 03:35:20;;;;;;;8.38;5.60;;;2.10;1.00;;;;;;5061154;28;20316;-84
2021/04/09 03:37:47;;;;;;;9.05;6.20;;;2.10;1.00;;;;;;5069748;28;20312;-85
2021/04/09 03:40:19;;;;;;;7.78;5.90;;;2.10;1.00;;;;;;5082485;28;20225;-84
2021/04/09 03:42:46;;;;;;;7.88;6.00;;;2.00;1.00;;;;;;5077084;28;21336;-84
2021/04/09 03:47:57;;;;;;;6.63;6.03;;;2.00;1.00;;;;;;5072521;28;20228;-83
2021/04/09 03:50:26;;;;;;;7.78;6.10;;;2.00;1.00;;;;;;5079942;28;20339;-83
2021/04/09 03:52:54;;;;;;;6.72;5.45;;;2.00;1.00;;;;;;5058661;28;20868;-84
2021/04/09 03:55:21;;;;;;;6.45;5.50;;;2.00;1.00;;;;;;5071699;28;20229;-86
2021/04/09 03:57:47;;;;;;;6.63;5.30;;;2.00;1.00;;;;;;5067709;28;20221;-82
2021/04/09 04:00:19;;;;;;;7.47;5.63;;;2.00;1.00;;;;;;5060656;28;20229;-83
2021/04/09 04:02:53;;;;;;;6.93;5.55;;;2.00;1.00;;;;;;5067076;28;20225;-83
2021/04/09 04:05:21;;;;;;;7.15;6.18;;;1.90;1.00;;;;;;5076226;28;20212;-84
2021/04/09 04:07:48;;;;;;;9.43;6.78;;;2.10;1.00;;;;;;5050181;28;20237;-83
2021/04/09 04:10:19;;;;;;;8.20;6.10;;;2.10;1.00;;;;;;5063024;28;20233;-83
2021/04/09 04:12:47;;;;;;;6.90;6.10;;;2.10;1.00;;;;;;5051906;28;20233;-83
2021/04/09 04:15:14;;;;;;;6.20;5.70;;;2.10;1.00;;;;;;5060796;28;20718;-83
2021/04/09 04:17:40;;;;;;;10.55;6.78;;;2.10;1.00;;;;;;5061229;28;20504;-83
2021/04/09 04:20:15;;;;;;;8.77;6.50;;;2.00;1.00;;;;;;5050881;28;20304;-82
2021/04/09 04:22:42;;;;;;;6.90;6.10;;;2.00;1.00;;;;;;5063964;28;20229;-82
2021/04/09 04:25:10;;;;;;;9.40;6.00;;;1.90;1.00;;;;;;5060796;28;20236;-81
2021/04/09 04:27:36;;;;;;;8.80;6.95;;;1.90;1.00;;;;;;5068963;28;20448;-81
2021/04/09 04:30:06;;;;;;;7.07;6.00;;;1.90;1.00;;;;;;5054094;28;20230;-83
2021/04/09 04:32:34;;;;;;;7.55;6.10;;;1.90;1.00;;;;;;5062493;28;20507;-83
2021/04/09 04:35:02;;;;;;;12.13;7.72;;;1.90;1.00;;;;;;5058592;28;21076;-82
2021/04/09 04:37:30;;;;;;;10.00;6.93;;;1.90;1.00;;;;;;5065085;28;20217;-82
2021/04/09 04:39:56;;;;;;;9.27;7.68;;;1.80;1.00;;;;;;5047458;28;22314;-82
2021/04/09 04:42:29;;;;;;;8.38;6.75;;;1.80;1.00;;;;;;5071302;28;20220;-83
2021/04/09 04:44:56;;;;;;;8.05;7.25;;;1.80;1.00;;;;;;5044647;28;20311;-83
2021/04/09 04:47:23;;;;;;;9.00;7.30;;;1.80;1.00;;;;;;5057929;28;20758;-83
2021/04/09 04:49:50;;;;;;;8.82;7.38;;;1.90;1.00;;;;;;5047538;28;20225;-83
2021/04/09 04:52:16;;;;;;;11.93;8.18;;;1.90;1.00;;;;;;5076879;28;20225;-83
2021/04/09 04:54:44;;;;;;;8.70;6.30;;;1.90;1.00;;;;;;5050241;28;20248;-82
2021/04/09 04:57:13;;;;;;;7.70;7.00;;;2.00;1.00;;;;;;5069649;28;21108;-82
2021/04/09 04:59:39;;;;;;;7.70;7.00;;;2.00;1.00;;;;;;5043382;28;20248;-82
2021/04/09 05:02:09;;;;;;;8.32;7.63;;;2.10;1.00;;;;;;5060986;28;20217;-82
2021/04/09 05:04:39;;;;;;;9.15;7.30;;;2.10;1.00;;;;;;5050037;28;20312;-83
2021/04/09 05:07:06;;;;;;;8.68;6.90;;;2.10;1.00;;;;;;5079462;28;20304;-82
2021/04/09 05:09:32;;;;;;;8.32;7.43;;;2.20;1.00;;;;;;5083258;27;20213;-83
2021/04/09 05:11:59;;;;;;;9.07;7.85;;;2.20;1.00;;;;;;5072991;28;20232;-84
2021/04/09 05:14:26;;;;;;;10.63;7.78;;;2.20;1.00;;;;;;5056321;28;21162;-82
2021/04/09 05:16:53;;;;;;;8.23;7.43;;;2.20;1.00;;;;;;5049687;28;21133;-83
2021/04/09 05:19:20;;;;;;;9.10;7.60;;;2.20;1.00;;;;;;5071941;28;20341;-80
2021/04/09 05:21:48;;;;;;;11.60;8.77;;;2.30;1.00;;;;;;5068166;28;20255;-82
2021/04/09 05:24:15;;;;;;;10.73;8.68;;;2.30;1.00;;;;;;5078478;28;20236;-82
2021/04/09 05:26:41;;;;;;;11.75;8.10;;;2.40;1.00;;;;;;5066114;28;20228;-81
2021/04/09 05:29:08;;;;;;;8.13;7.00;;;2.50;1.00;;;;;;5086096;28;20235;-82
2021/04/09 05:31:35;;;;;;;10.15;8.23;;;2.50;1.00;;;;;;5079171;28;20704;-82
2021/04/09 05:34:03;;;;;;;9.30;8.40;;;2.60;1.00;;;;;;5059514;28;20649;-84
2021/04/09 05:36:30;;;;;;;10.35;8.30;;;2.60;1.00;;;;;;5055683;28;20241;-84
2021/04/09 05:38:58;;;;;;;13.43;8.20;;;2.70;1.00;;;;;;5079585;28;20236;-81
2021/04/09 05:41:25;;;;;;;8.90;8.00;;;2.80;1.00;;;;;;5060452;28;20833;-84
2021/04/09 05:43:51;;;;;;;10.30;7.20;;;2.90;1.00;;;;;;5060595;28;20209;-82
2021/04/09 05:46:18;;;;;;;8.73;7.00;;;2.90;1.00;;;;;;5053306;28;20331;-83
2021/04/09 05:48:46;;;;;;;8.52;7.55;;;3.00;1.00;;;;;;5061767;28;20313;-82
2021/04/09 05:51:13;;;;;;;8.00;7.20;;;3.10;1.00;;;;;;5058242;28;20466;-82
2021/04/09 05:53:40;;;;;;;9.13;8.32;;;3.20;1.00;;;;;;5065582;28;22022;-82
2021/04/09 05:56:10;;;;;;;10.35;7.80;;;3.30;1.00;;;;;;5080887;28;21856;-83
2021/04/09 05:58:37;;;;;;;12.90;8.70;;;3.30;1.00;;;;;;5071704;28;20213;-81
2021/04/09 06:01:06;;;;;;;9.02;7.93;;;3.40;1.00;;;;;;5050673;28;20221;-82
2021/04/09 06:03:33;;;;;;;9.13;8.05;;;3.50;1.00;;;;;;5047672;28;20943;-82
2021/04/09 06:06:00;;;;;;;8.27;7.50;;;3.60;1.00;;;;;;5076685;28;20228;-83
2021/04/09 06:08:31;;;;;;;10.68;8.35;;;3.80;1.00;;;;;;5049070;28;20236;-82
2021/04/09 06:11:01;;;;;;;8.55;7.60;;;3.80;1.00;;;;;;5060504;28;21569;-82
2021/04/09 06:13:29;;;;;;;8.85;7.32;;;4.00;1.00;;;;;;5047137;28;20669;-81
2021/04/09 06:15:59;;;;;;;8.35;7.55;;;4.00;1.00;;;;;;5077727;28;20232;-83
2021/04/09 06:18:38;;;;;;;27.73;21.70;;;4.00;1.00;;;;;;5063916;28;20227;-82
2021/04/09 06:21:07;;;;;;;8.63;7.78;;;4.20;1.00;;;;;;5074735;28;20225;-82
2021/04/09 06:23:34;;;;;;;9.48;7.70;;;4.40;1.00;;;;;;5052476;28;21087;-84
2021/04/09 06:26:01;;;;;;;9.10;7.70;;;4.40;1.00;;;;;;5055106;28;20221;-82
2021/04/09 06:28:28;;;;;;;8.52;7.65;;;4.50;1.00;;;;;;5072904;28;20228;-83
2021/04/09 06:30:55;;;;;;;8.63;7.82;;;4.60;1.00;;;;;;5056112;28;20438;-82
2021/04/09 06:33:29;;;;;;;9.60;8.07;;;4.80;1.00;;;;;;5050072;28;20422;-83
2021/04/09 06:35:59;;;;;;;11.85;7.63;;;4.90;1.00;;;;;;5068348;28;20225;-82
2021/04/09 06:38:31;;;;;;;8.38;7.47;;;4.90;1.00;;;;;;5073898;28;20216;-82
2021/04/09 06:41:00;;;;;;;9.15;8.23;;;5.00;1.00;;;;;;5080057;28;20245;-84
2021/04/09 06:43:28;;;;;;;8.40;7.57;;;5.00;1.00;;;;;;5053713;28;20221;-84
2021/04/09 06:45:55;;;;;;;10.82;7.90;;;5.10;1.00;;;;;;5059371;28;20224;-85
2021/04/09 06:48:22;;;;;;;11.13;8.18;;;5.20;1.00;;;;;;5075944;28;20249;-82
2021/04/09 06:50:52;;;;;;;9.75;8.10;;;5.20;1.00;;;;;;5048640;28;21188;-84
2021/04/09 06:53:26;;;;;;;8.75;7.75;;;5.30;1.00;;;;;;5074922;28;20251;-85
2021/04/09 06:55:53;;;;;;;9.23;8.27;;;5.30;1.00;;;;;;5054958;28;20221;-84
2021/04/09 06:58:27;;;;;;;9.10;7.80;;;5.40;1.00;;;;;;5073446;28;20229;-83
2021/04/09 07:01:00;;;;;;;12.95;9.07;;;5.60;1.00;;;;;;5083735;28;20228;-85
2021/04/09 07:06:20;;;;;;;12.10;8.60;;;6.00;1.00;;;;;;5126902;22;20251;-85
2021/04/09 07:08:49;;;;;;;8.70;7.90;;;6.10;1.00;;;;;;5105354;28;20799;-85
2021/04/09 07:11:15;;;;;;;9.13;8.25;;;6.20;1.00;;;;;;5099650;27;20247;-85
2021/04/09 07:13:53;;;;;;;8.68;7.78;;;6.10;1.00;;;;;;5091766;28;20236;-83
2021/04/09 07:16:23;;;;;;;9.98;8.48;;;6.20;1.00;;;;;;5094939;28;20274;-83
2021/04/09 07:18:52;;;;;;;10.93;8.68;;;6.30;1.00;;;;;;5092814;28;20228;-83
2021/04/09 07:21:23;;;;;;;9.25;7.80;;;6.50;1.00;;;;;;5090024;28;20243;-82
2021/04/09 07:24:22;;;;;;;9.27;8.27;;;6.60;1.00;;;;;;5096213;28;20223;-84
2021/04/09 07:26:51;;;;;;;10.73;8.15;;;6.80;1.00;;;;;;5081674;28;20224;-82
2021/04/09 07:29:38;;;;;;;9.65;8.48;;;6.80;1.00;;;;;;5097831;28;20275;-84
2021/04/09 07:32:32;;;;;;;8.77;7.75;;;6.70;1.00;;;;;;5090925;28;20228;-82
2021/04/09 07:35:06;;;;;;;10.30;8.00;;;6.70;1.00;;;;;;5114283;27;20255;-82
2021/04/09 07:37:49;;;;;;;8.70;7.80;;;6.70;1.00;;;;;;5092154;28;20294;-85
2021/04/09 07:40:23;;;;;;;9.95;8.15;;;6.90;1.00;;;;;;5090316;28;20224;-83
2021/04/09 07:42:50;;;;;;;9.18;7.70;;;7.10;1.00;;;;;;5082562;28;20228;-85
2021/04/09 07:45:20;;;;;;;9.48;7.97;;;7.20;1.00;;;;;;5098862;28;20241;-84
2021/04/09 07:47:56;;;;;;;8.00;7.10;;;7.30;1.00;;;;;;5091234;28;20239;-83
2021/04/09 07:50:55;;;;;;;8.95;8.15;;;7.50;1.00;;;;;;5103457;28;20312;-83
2021/04/09 07:53:40;;;;;;;10.95;8.63;;;7.60;1.00;;;;;;5077895;28;20327;-83
2021/04/09 07:56:19;;;;;;;17.35;9.25;;;7.50;1.00;;;;;;5099409;28;20246;-84
2021/04/09 07:58:56;;;;;;;9.38;7.70;;;7.70;1.00;;;;;;5102027;28;20270;-82
2021/04/09 08:01:29;;;;;;;10.90;8.15;;;7.70;1.00;;;;;;5102910;28;21163;-82
2021/04/09 08:07:39;;;;;;;10.07;7.55;;;8.10;1.00;;;;;;5156570;22;20228;-86
2021/04/09 08:10:09;;;;;;;8.65;7.55;;;8.30;1.00;;;;;;5105891;28;20228;-84
2021/04/09 08:12:40;;;;;;;8.73;7.82;;;8.50;1.00;;;;;;5124495;22;20253;-85
2021/04/09 08:15:28;;;;;;;11.10;7.25;;;8.80;1.00;;;;;;5068522;28;20224;-84
2021/04/09 08:18:11;;;;;;;10.55;8.98;;;8.90;1.00;;;;;;5054831;28;20226;-83
2021/04/09 08:20:58;;;;;;;9.85;8.35;;;9.10;1.00;;;;;;5054442;28;20217;-82
2021/04/09 08:23:28;;;;;;;9.13;7.60;;;9.30;1.00;;;;;;5068361;27;20791;-85
2021/04/09 08:25:58;;;;;;;7.30;6.50;;;9.30;1.00;;;;;;5057344;28;20225;-84
2021/04/09 08:28:30;;;;;;;9.77;8.13;;;9.20;1.00;;;;;;5065668;28;20245;-85
2021/04/09 08:30:58;;;;;;;10.05;7.82;;;9.20;1.00;;;;;;5065708;28;20230;-82
2021/04/09 08:33:29;;;;;;;10.77;7.70;;;9.30;1.00;;;;;;5054201;28;20713;-83
2021/04/09 08:36:01;;;;;;;11.30;7.32;;;9.40;1.00;;;;;;5349567;22;20238;-84
2021/04/09 08:38:29;;;;;;;9.00;8.10;;;9.60;1.00;;;;;;5106682;28;20225;-82
2021/04/09 08:41:00;;;;;;;14.18;8.32;;;9.80;1.00;;;;;;5079825;28;20231;-79
2021/04/09 08:43:27;;;;;;;9.48;8.35;;;10.10;1.00;;;;;;5075289;28;20411;-79
2021/04/09 08:45:54;;;;;;;10.80;8.23;;;10.40;1.00;;;;;;5098516;28;20238;-78
2021/04/09 08:48:22;;;;;;;8.07;7.28;;;10.50;1.00;;;;;;5089773;28;20247;-78
2021/04/09 08:50:49;;;;;;;8.20;7.40;;;10.60;1.00;;;;;;5106814;28;20773;-77
2021/04/09 08:53:28;;;;;;;8.35;7.43;;;10.70;1.00;;;;;;5100101;28;20281;-78
2021/04/09 08:55:55;;;;;;;8.60;7.20;;;11.00;1.00;;;;;;5095741;28;20227;-78
2021/04/09 08:58:30;;;;;;;9.80;7.55;;;11.20;1.00;;;;;;5103052;28;20393;-76
2021/04/09 09:01:11;;;;;;;9.05;7.18;;;11.30;1.00;;;;;;5089884;28;24048;-77
2021/04/09 09:03:37;;;;;;;10.00;8.15;;;11.00;1.00;;;;;;5103106;28;20222;-80
2021/04/09 09:06:05;;;;;;;13.63;7.50;;;11.20;1.00;;;;;;5095409;28;20200;-75
2021/04/09 09:08:59;;;;;;;8.23;7.33;;;11.40;1.00;;;;;;5103821;28;20448;-77
2021/04/09 09:11:56;;;;;;;8.18;7.07;;;11.50;1.00;;;;;;5097315;28;20507;-77
2021/04/09 09:14:46;;;;;;;11.30;7.03;;;11.40;1.00;;;;;;5064698;28;20331;-77
2021/04/09 09:17:35;;;;;;;8.93;6.85;;;11.60;1.00;;;;;;5096186;28;20282;-78
2021/04/09 09:20:17;;;;;;;8.40;7.10;;;12.00;1.00;;;;;;5087272;28;20227;-76
2021/04/09 09:22:57;;;;;;;8.57;7.70;;;12.30;1.00;;;;;;5101048;28;20449;-78
2021/04/09 09:25:33;;;;;;;8.20;6.40;;;12.40;1.00;;;;;;5090095;28;20394;-74
2021/04/09 09:28:01;;;;;;;8.40;7.60;;;12.90;1.00;;;;;;5107715;28;20460;-76
2021/04/09 09:30:35;;;;;;;10.00;7.93;;;13.60;1.00;;;;;;5086341;28;20410;-77
2021/04/09 09:33:22;;;;;;;10.30;7.70;;;14.40;1.00;;;;;;5099568;28;20427;-76
2021/04/09 09:36:10;;;;;;;7.97;7.27;;;15.30;1.00;;;;;;5083778;28;20778;-77
2021/04/09 09:38:47;;;;;;;9.50;7.63;;;15.80;1.00;;;;;;5094842;28;20442;-75
2021/04/09 09:41:41;;;;;;;8.13;7.37;;;16.60;1.00;;;;;;5079235;28;20407;-77
2021/04/09 09:44:31;;;;;;;11.17;7.90;;;17.30;1.00;;;;;;5089611;28;20479;-78
2021/04/09 09:47:00;;;;;;;9.17;8.00;;;17.80;1.00;;;;;;5064207;28;20401;-78
2021/04/09 09:49:29;;;;;;;9.90;8.20;;;18.40;1.00;;;;;;5084142;28;20604;-77
2021/04/09 09:51:55;;;;;;;8.97;8.10;;;17.70;1.00;;;;;;5061484;28;20451;-76
2021/04/09 09:54:23;;;;;;;11.90;9.20;;;17.20;1.00;;;;;;5079793;28;20476;-77
2021/04/09 09:56:51;;;;;;;11.13;8.20;;;17.30;1.00;;;;;;5062243;28;21159;-76
2021/04/09 09:59:20;;;;;;;8.73;7.80;;;17.10;1.00;;;;;;5079076;28;20444;-76
2021/04/09 10:01:52;;;;;;;8.87;8.03;;;17.20;1.00;;;;;;5063030;28;20533;-75
2021/04/09 10:04:21;;;;;;;10.23;8.20;;;16.40;1.00;;;;;;5076573;28;20428;-76
2021/04/09 10:06:54;;;;;;;14.17;9.50;;;16.10;1.00;;;;;;5061741;28;20467;-76
2021/04/09 10:09:29;;;;;;;9.10;8.20;;;16.20;1.00;;;;;;5077804;28;20433;-77
2021/04/09 10:11:57;;;;;;;8.73;7.83;;;16.90;1.00;;;;;;5064252;28;20969;-76
2021/04/09 10:14:27;;;;;;;8.90;8.00;;;16.50;1.00;;;;;;5078489;28;21000;-76
2021/04/09 10:16:59;;;;;;;9.23;8.10;;;16.80;1.00;;;;;;5078789;27;20456;-77
2021/04/09 10:19:27;;;;;;;11.33;8.87;;;16.90;1.00;;;;;;5073019;28;21034;-81
2021/04/09 10:21:53;;;;;;;8.87;7.97;;;17.20;1.00;;;;;;5061664;28;20400;-74
2021/04/09 10:24:27;;;;;;;8.83;7.93;;;17.40;1.00;;;;;;5070418;28;20452;-76
2021/04/09 10:27:02;;;;;;;10.17;8.37;;;16.60;1.00;;;;;;5093356;28;20420;-80
2021/04/09 10:29:36;;;;;;;11.45;9.25;;;16.90;1.00;;;;;;5080745;28;20971;-76
2021/04/09 10:32:04;;;;;;;8.83;7.93;;;17.80;1.00;;;;;;5082385;28;20332;-78
2021/04/09 10:34:34;;;;;;;9.37;7.47;;;18.50;1.00;;;;;;5064443;28;21224;-79
2021/04/09 10:37:01;;;;;;;8.20;7.40;;;18.70;1.00;;;;;;5088832;28;20449;-80
2021/04/09 10:39:28;;;;;;;10.50;7.83;;;18.40;1.00;;;;;;5068405;28;20868;-82
2021/04/09 10:41:55;;;;;;;11.00;7.70;;;18.00;1.00;;;;;;5089321;28;21016;-79
2021/04/09 10:44:25;;;;;;;9.87;6.50;;;17.90;1.00;;;;;;5070315;28;20525;-77
2021/04/09 10:46:53;;;;;;;7.20;6.50;;;17.90;1.00;;;;;;5083925;28;20502;-79
2021/04/09 10:49:20;;;;;;;7.80;7.10;;;18.20;1.00;;;;;;5067746;28;20540;-78
2021/04/09 10:51:50;;;;;;;11.40;6.77;;;18.70;1.00;;;;;;5082177;28;20604;-78
2021/04/09 10:54:19;;;;;;;7.13;6.43;;;19.30;1.00;;;;;;5078784;28;20423;-80
2021/04/09 10:56:54;;;;;;;7.60;6.73;;;19.50;1.00;;;;;;5090573;28;20437;-80
2021/04/09 10:59:24;;;;;;;7.63;6.87;;;19.20;1.00;;;;;;5068219;28;21312;-77
2021/04/09 11:01:51;;;;;;;8.50;7.20;;;19.60;1.00;;;;;;5094057;28;20510;-74
2021/04/09 11:04:22;;;;;;;7.27;6.67;;;19.60;1.00;;;;;;5066065;28;20466;-77
2021/04/09 11:06:49;;;;;;;7.77;7.03;;;19.70;1.00;;;;;;5084557;28;20404;-76
2021/04/09 11:09:16;;;;;;;8.80;7.10;;;19.90;1.00;;;;;;5063802;28;20470;-77
2021/04/09 11:11:42;;;;;;;11.90;8.87;;;20.90;1.00;;;;;;5082340;28;20466;-79
2021/04/09 11:14:12;;;;;;;10.30;7.80;;;21.60;1.00;;;;;;5064446;28;22649;-78
2021/04/09 11:16:54;;;;;;;8.87;7.70;;;20.60;1.00;;;;;;5087459;28;20216;-80
2021/04/09 11:19:30;;;;;;;9.30;6.93;;;20.50;1.00;;;;;;5072138;28;22584;-82
2021/04/09 11:21:58;;;;;;;7.87;7.13;;;20.80;1.00;;;;;;5086836;28;20529;-81
2021/04/09 11:24:28;;;;;;;8.37;7.53;;;20.70;1.00;;;;;;5074871;28;20936;-77
2021/04/09 11:26:55;;;;;;;8.13;7.33;;;20.90;1.00;;;;;;5084707;28;20438;-78
2021/04/09 11:29:23;;;;;;;8.93;7.07;;;20.70;1.00;;;;;;5086244;28;20458;-77
2021/04/09 11:31:50;;;;;;;7.93;7.13;;;20.70;1.00;;;;;;5069675;28;20438;-78
2021/04/09 11:34:17;;;;;;;7.83;7.13;;;21.30;1.00;;;;;;5090586;28;20471;-76
2021/04/09 11:36:48;;;;;;;7.73;6.93;;;22.00;1.00;;;;;;5070065;28;20515;-75
2021/04/09 11:39:16;;;;;;;7.90;7.10;;;22.10;1.00;;;;;;5079610;28;20477;-79
2021/04/09 11:41:45;;;;;;;9.83;7.23;;;22.10;1.00;;;;;;5063805;28;20422;-76
2021/04/09 11:44:28;;;;;;;8.23;7.43;;;21.80;1.00;;;;;;5073540;28;20527;-77
2021/04/09 11:47:22;;;;;;;8.67;7.87;;;22.20;1.00;;;;;;5080042;28;20616;-79
2021/04/09 11:50:01;;;;;;;7.60;7.03;;;22.20;1.00;;;;;;5090629;28;20498;-75
2021/04/09 11:52:31;;;;;;;8.63;7.93;;;23.00;1.00;;;;;;5084346;28;20466;-79
2021/04/09 11:54:57;;;;;;;9.17;8.27;;;23.00;1.00;;;;;;5097662;28;21006;-79
2021/04/09 11:57:25;;;;;;;7.23;6.63;;;22.80;1.00;;;;;;5093527;27;20460;-78
2021/04/09 11:59:52;;;;;;;9.50;6.37;;;23.00;1.00;;;;;;5097158;28;20420;-80
2021/04/09 12:02:27;;;;;;;7.23;5.50;;;22.60;1.00;;;;;;5081943;28;20406;-77
2021/04/09 12:04:58;;;;;;;7.27;6.67;;;22.40;1.00;;;;;;5098147;28;20429;-79
2021/04/09 12:07:28;;;;;;;7.70;6.97;;;22.50;1.00;;;;;;5083651;28;20431;-78
2021/04/09 12:09:56;;;;;;;6.43;5.87;;;22.40;1.00;;;;;;5081042;28;20491;-78
2021/04/09 12:12:24;;;;;;;6.00;5.40;;;21.80;1.00;;;;;;5071513;28;20488;-78
2021/04/09 12:14:54;;;;;;;9.93;5.10;;;22.20;1.00;;;;;;5087977;28;20584;-77
2021/04/09 12:17:22;;;;;;;6.00;5.30;;;22.60;1.00;;;;;;5075760;28;20439;-77
2021/04/09 12:19:51;;;;;;;6.00;5.40;;;22.30;1.00;;;;;;5099570;28;20454;-77
2021/04/09 12:22:18;;;;;;;10.03;5.80;;;22.10;1.00;;;;;;5075847;28;20488;-75
2021/04/09 12:24:46;;;;;;;7.60;6.00;;;22.40;1.00;;;;;;5084206;28;20455;-79
2021/04/09 12:27:12;;;;;;;6.67;5.70;;;22.60;1.00;;;;;;5072100;28;20582;-78
2021/04/09 12:29:39;;;;;;;7.00;6.30;;;22.60;1.00;;;;;;5085200;28;20472;-77
2021/04/09 12:32:07;;;;;;;6.47;5.97;;;21.40;1.00;;;;;;5073540;28;20451;-78
2021/04/09 12:34:35;;;;;;;7.60;6.60;;;20.30;1.00;;;;;;5097308;28;20504;-78
2021/04/09 12:37:02;;;;;;;7.37;6.50;;;20.40;1.00;;;;;;5090141;28;20419;-77
2021/04/09 12:39:29;;;;;;;7.63;6.87;;;20.90;1.00;;;;;;5074805;28;20463;-76
2021/04/09 12:41:57;;;;;;;7.40;6.80;;;21.30;1.00;;;;;;5082691;28;20454;-76
2021/04/09 12:44:23;;;;;;;7.20;6.50;;;22.00;1.00;;;;;;5076106;28;20477;-79
2021/04/09 12:46:51;;;;;;;7.40;6.70;;;22.30;1.00;;;;;;5095438;28;20497;-78
2021/04/09 12:49:19;;;;;;;7.10;6.50;;;23.00;1.00;;;;;;5074298;28;20450;-77
2021/04/09 12:51:46;;;;;;;6.87;6.27;;;23.80;1.00;;;;;;5092237;28;20459;-79
2021/04/09 12:54:13;;;;;;;8.10;7.23;;;23.60;1.00;;;;;;5074952;28;20465;-79
2021/04/09 12:56:41;;;;;;;8.10;7.30;;;23.10;1.00;;;;;;5087226;28;21326;-77
2021/04/09 12:59:09;;;;;;;9.43;7.43;;;22.10;1.00;;;;;;5076768;28;20407;-77
2021/04/09 13:01:36;;;;;;;7.63;7.00;;;20.30;1.00;;;;;;5091583;28;20458;-77
2021/04/09 13:04:02;;;;;;;8.63;7.70;;;18.80;1.00;;;;;;5080138;28;20425;-78
2021/04/09 13:06:31;;;;;;;8.67;7.77;;;18.40;1.00;;;;;;5084316;28;21423;-80
2021/04/09 13:08:57;;;;;;;14.30;8.40;;;18.40;1.00;;;;;;5070836;28;20436;-79
2021/04/09 13:11:23;;;;;;;8.50;7.50;;;18.30;1.00;;;;;;5087278;28;20447;-78
2021/04/09 13:13:52;;;;;;;9.10;8.07;;;18.00;1.00;;;;;;5067606;28;20503;-79
2021/04/09 13:16:20;;;;;;;11.30;8.57;;;18.10;1.00;;;;;;5088523;28;20419;-77
2021/04/09 13:18:50;;;;;;;11.93;8.93;;;18.40;1.00;;;;;;5077467;28;20519;-77
2021/04/09 13:21:17;;;;;;;10.50;8.33;;;18.40;1.00;;;;;;5084304;28;20529;-77
2021/04/09 13:23:44;;;;;;;8.90;8.00;;;19.10;1.00;;;;;;5082905;28;20470;-78
2021/04/09 13:26:10;;;;;;;11.30;7.90;;;20.10;1.00;;;;;;5067570;28;20415;-77
2021/04/09 13:28:37;;;;;;;9.83;7.50;;;20.70;1.00;;;;;;5084640;28;20458;-78
2021/04/09 13:31:05;;;;;;;8.60;7.90;;;20.30;1.00;;;;;;5066199;28;20470;-77
2021/04/09 13:33:33;;;;;;;8.57;7.77;;;20.30;1.00;;;;;;5078179;28;20457;-78